Stolt Shearwater — ZCRD9 — position and weather

sailwx.info

Track history (hours):
 
Tides and Currents Weather Stations Pressure Air Temp Water Temp Dewpoint Dewpoint Depression Visibility Wind Speed Wind Dir Waves Ship Positions

Stolt Shearwater

Last reported at 2016-May-02 22:33 UTC. Time now 2016-May-03 01:13 UTC.
Position N 43°07' E 004°56'.

Length 96 m; draft 6.6 m.

Type: Ship (hazmat cat B). MMSI: 319402000.

Date/timePositionNaut miles runAvg speedWind from/ knotsBaromVisibWave heightAir tempDewpointWater temp
2016-May-02 22:33N 43°07' E 004°56'10 9.5
2016-May-02 21:33N 43°16' E 004°60'9 9.3
2016-May-02 20:33N 43°24' E 004°53'3 2.4
2016-May-02 19:27N 43°26' E 004°50'0 0.0
2016-May-02 18:30N 43°26' E 004°50'0 0.0
2016-May-02 10:33N 43°26' E 004°50'0 0.0
2016-May-02 07:27N 43°26' E 004°50'0 0.0
2016-May-02 06:33N 43°26' E 004°50'0 0.0
2016-May-02 03:33N 43°26' E 004°50'3 3.2
2016-May-02 02:33N 43°24' E 004°54'1 1.4
2016-May-02 01:31N 43°25' E 004°56'0 0.0
2016-May-02 00:31N 43°25' E 004°56'0 0.0
2016-May-01 23:33N 43°25' E 004°56'0 0.0
2016-May-01 22:33N 43°25' E 004°56'0 0.0
2016-May-01 21:33N 43°25' E 004°56'0 0.0
2016-May-01 20:33N 43°25' E 004°56'0 0.0
2016-May-01 19:33N 43°25' E 004°56'0 0.0
2016-May-01 18:33N 43°25' E 004°56'0 0.0
2016-May-01 17:33N 43°25' E 004°56'0 0.0
2016-May-01 16:33N 43°25' E 004°56'0 0.0
2016-May-01 15:33N 43°25' E 004°56'0 0.0
2016-May-01 14:33N 43°25' E 004°56'0 0.0
2016-May-01 13:33N 43°25' E 004°56'0 0.0
2016-May-01 12:33N 43°25' E 004°56'0 0.0
2016-May-01 11:33N 43°25' E 004°56'0 0.0
2016-May-01 10:33N 43°25' E 004°56'0 0.0
2016-May-01 09:33N 43°25' E 004°56'0 0.0
2016-May-01 08:33N 43°25' E 004°56'0 0.0
2016-May-01 07:33N 43°25' E 004°56'0 0.0
2016-May-01 06:33N 43°25' E 004°56'0 0.0
2016-May-01 05:33N 43°25' E 004°56'0 0.0
2016-May-01 04:33N 43°25' E 004°56'0 0.0
2016-May-01 03:33N 43°25' E 004°56'0 0.0
2016-May-01 02:33N 43°25' E 004°56'0 0.0
2016-May-01 01:33N 43°25' E 004°56'0 0.0
2016-May-01 00:33N 43°25' E 004°56'0 0.0
2016-Apr-30 23:33N 43°25' E 004°56'0 0.0
2016-Apr-30 22:33N 43°25' E 004°56'0 0.0
2016-Apr-30 21:33N 43°25' E 004°56'0 0.0
2016-Apr-30 20:30N 43°25' E 004°56'0 0.0
2016-Apr-30 19:33N 43°25' E 004°56'0 0.0
2016-Apr-30 18:33N 43°25' E 004°56'0 0.1
2016-Apr-30 17:33N 43°25' E 004°56'0 0.1
2016-Apr-30 16:33N 43°25' E 004°56'2 1.5
2016-Apr-30 15:33N 43°23' E 004°57'8 7.7
2016-Apr-30 14:33N 43°16' E 005°01'26 8.4
2016-Apr-30 11:30N 42°54' E 004°44'128 9.7
2016-Apr-29 22:18N 41°12' E 003°00'8 9.9
2016-Apr-29 21:32N 41°06' E 002°54'1010.4
2016-Apr-29 20:33N 40°58' E 002°46'1010.2
2016-Apr-29 19:33N 40°50' E 002°37'10 9.9
2016-Apr-29 18:33N 40°42' E 002°30'10 9.9
2016-Apr-29 17:33N 40°34' E 002°22'1111.2
2016-Apr-29 16:33N 40°25' E 002°13'1211.5
2016-Apr-29 15:33N 40°17' E 002°03'1110.8
2016-Apr-29 14:33N 40°11' E 001°51'1111.4
2016-Apr-29 13:33N 40°10' E 001°36'1110.8
2016-Apr-29 12:33N 40°10' E 001°22'2 0.1
2016-Apr-28 03:28N 40°08' E 001°21'1011.0
2016-Apr-28 02:33N 40°09' E 001°34'1110.6
2016-Apr-28 01:33N 40°10' E 001°48'1010.1
2016-Apr-28 00:34N 40°12' E 002°01'10 9.6
2016-Apr-27 23:34N 40°13' E 002°13'1010.1
2016-Apr-27 22:33N 40°14' E 002°27'10 9.9
2016-Apr-27 21:33N 40°15' E 002°39'1010.1
2016-Apr-27 20:34N 40°16' E 002°52'1010.1
2016-Apr-27 19:33N 40°17' E 003°06'1010.0
2016-Apr-27 18:32N 40°18' E 003°19'1310.2
2016-Apr-27 17:15N 40°20' E 003°36'  
2016-Apr-24 13:15N 43°25' E 008°35'710.4
2016-Apr-24 12:34N 43°32' E 008°38'1110.6
2016-Apr-24 11:33N 43°42' E 008°42'1111.0
2016-Apr-24 10:34N 43°52' E 008°47'1111.4
2016-Apr-24 09:34N 44°03' E 008°51'1211.6
2016-Apr-24 08:34N 44°14' E 008°56'10 9.4
2016-Apr-24 07:32N 44°24' E 008°55'0 0.0
2016-Apr-24 06:29N 44°24' E 008°55'0 0.0
2016-Apr-24 05:29N 44°24' E 008°55'0 0.0
2016-Apr-24 04:29N 44°24' E 008°55'0 0.0
2016-Apr-24 03:29N 44°24' E 008°55'0 0.0
2016-Apr-24 02:32N 44°24' E 008°55'0 0.0
2016-Apr-24 01:32N 44°24' E 008°55'0 0.0
2016-Apr-24 00:26N 44°24' E 008°55'0 0.0
2016-Apr-23 23:26N 44°24' E 008°55'0 0.0
2016-Apr-23 22:29N 44°24' E 008°55'0 0.0
2016-Apr-23 21:23N 44°24' E 008°55'0 0.0
2016-Apr-23 20:23N 44°24' E 008°55'0 0.0
2016-Apr-23 19:32N 44°24' E 008°55'0 0.0
2016-Apr-23 18:32N 44°24' E 008°55'0 0.0
2016-Apr-23 17:33N 44°24' E 008°55'2 1.8
2016-Apr-23 16:33N 44°23' E 008°57'0 0.5
2016-Apr-23 15:33N 44°23' E 008°58'7 6.6
2016-Apr-23 14:33N 44°16' E 008°56'1110.8
2016-Apr-23 13:33N 44°07' E 008°48'1110.9
2016-Apr-23 12:33N 43°57' E 008°41'  
Track history (hours):
 
Tides and Currents Weather Stations Pressure Air Temp Water Temp Dewpoint Dewpoint Depression Visibility Wind Speed Wind Dir Waves Ship Positions

Stolt Shearwater

Last reported at 2016-May-02 22:33 UTC. Time now 2016-May-03 01:13 UTC.
Position N 43°07' E 004°56'.

Length 96 m; draft 6.6 m.

Type: Ship (hazmat cat B). MMSI: 319402000.

Date/timePositionNaut miles runAvg speedWind from/ knotsBaromVisibWave heightAir tempDewpointWater temp
2016-May-02 22:33N 43°07' E 004°56'10 9.5
2016-May-02 21:33N 43°16' E 004°60'9 9.3
2016-May-02 20:33N 43°24' E 004°53'3 2.4
2016-May-02 19:27N 43°26' E 004°50'0 0.0
2016-May-02 18:30N 43°26' E 004°50'0 0.0
2016-May-02 10:33N 43°26' E 004°50'0 0.0
2016-May-02 07:27N 43°26' E 004°50'0 0.0
2016-May-02 06:33N 43°26' E 004°50'0 0.0
2016-May-02 03:33N 43°26' E 004°50'3 3.2
2016-May-02 02:33N 43°24' E 004°54'1 1.4
2016-May-02 01:31N 43°25' E 004°56'0 0.0
2016-May-02 00:31N 43°25' E 004°56'0 0.0
2016-May-01 23:33N 43°25' E 004°56'0 0.0
2016-May-01 22:33N 43°25' E 004°56'0 0.0
2016-May-01 21:33N 43°25' E 004°56'0 0.0
2016-May-01 20:33N 43°25' E 004°56'0 0.0
2016-May-01 19:33N 43°25' E 004°56'0 0.0
2016-May-01 18:33N 43°25' E 004°56'0 0.0
2016-May-01 17:33N 43°25' E 004°56'0 0.0
2016-May-01 16:33N 43°25' E 004°56'0 0.0
2016-May-01 15:33N 43°25' E 004°56'0 0.0
2016-May-01 14:33N 43°25' E 004°56'0 0.0
2016-May-01 13:33N 43°25' E 004°56'0 0.0
2016-May-01 12:33N 43°25' E 004°56'0 0.0
2016-May-01 11:33N 43°25' E 004°56'0 0.0
2016-May-01 10:33N 43°25' E 004°56'0 0.0
2016-May-01 09:33N 43°25' E 004°56'0 0.0
2016-May-01 08:33N 43°25' E 004°56'0 0.0
2016-May-01 07:33N 43°25' E 004°56'0 0.0
2016-May-01 06:33N 43°25' E 004°56'0 0.0
2016-May-01 05:33N 43°25' E 004°56'0 0.0
2016-May-01 04:33N 43°25' E 004°56'0 0.0
2016-May-01 03:33N 43°25' E 004°56'0 0.0
2016-May-01 02:33N 43°25' E 004°56'0 0.0
2016-May-01 01:33N 43°25' E 004°56'0 0.0
2016-May-01 00:33N 43°25' E 004°56'0 0.0
2016-Apr-30 23:33N 43°25' E 004°56'0 0.0
2016-Apr-30 22:33N 43°25' E 004°56'0 0.0
2016-Apr-30 21:33N 43°25' E 004°56'0 0.0
2016-Apr-30 20:30N 43°25' E 004°56'0 0.0
2016-Apr-30 19:33N 43°25' E 004°56'0 0.0
2016-Apr-30 18:33N 43°25' E 004°56'0 0.1
2016-Apr-30 17:33N 43°25' E 004°56'0 0.1
2016-Apr-30 16:33N 43°25' E 004°56'2 1.5
2016-Apr-30 15:33N 43°23' E 004°57'8 7.7
2016-Apr-30 14:33N 43°16' E 005°01'26 8.4
2016-Apr-30 11:30N 42°54' E 004°44'128 9.7
2016-Apr-29 22:18N 41°12' E 003°00'8 9.9
2016-Apr-29 21:32N 41°06' E 002°54'1010.4
2016-Apr-29 20:33N 40°58' E 002°46'1010.2
2016-Apr-29 19:33N 40°50' E 002°37'10 9.9
2016-Apr-29 18:33N 40°42' E 002°30'10 9.9
2016-Apr-29 17:33N 40°34' E 002°22'1111.2
2016-Apr-29 16:33N 40°25' E 002°13'1211.5
2016-Apr-29 15:33N 40°17' E 002°03'1110.8
2016-Apr-29 14:33N 40°11' E 001°51'1111.4
2016-Apr-29 13:33N 40°10' E 001°36'1110.8
2016-Apr-29 12:33N 40°10' E 001°22'2 0.1
2016-Apr-28 03:28N 40°08' E 001°21'1011.0
2016-Apr-28 02:33N 40°09' E 001°34'1110.6
2016-Apr-28 01:33N 40°10' E 001°48'1010.1
2016-Apr-28 00:34N 40°12' E 002°01'10 9.6
2016-Apr-27 23:34N 40°13' E 002°13'1010.1
2016-Apr-27 22:33N 40°14' E 002°27'10 9.9
2016-Apr-27 21:33N 40°15' E 002°39'1010.1
2016-Apr-27 20:34N 40°16' E 002°52'1010.1
2016-Apr-27 19:33N 40°17' E 003°06'1010.0
2016-Apr-27 18:32N 40°18' E 003°19'1310.2
2016-Apr-27 17:15N 40°20' E 003°36'  
2016-Apr-24 13:15N 43°25' E 008°35'710.4
2016-Apr-24 12:34N 43°32' E 008°38'1110.6
2016-Apr-24 11:33N 43°42' E 008°42'1111.0
2016-Apr-24 10:34N 43°52' E 008°47'1111.4
2016-Apr-24 09:34N 44°03' E 008°51'1211.6
2016-Apr-24 08:34N 44°14' E 008°56'10 9.4
2016-Apr-24 07:32N 44°24' E 008°55'0 0.0
2016-Apr-24 06:29N 44°24' E 008°55'0 0.0
2016-Apr-24 05:29N 44°24' E 008°55'0 0.0
2016-Apr-24 04:29N 44°24' E 008°55'0 0.0
2016-Apr-24 03:29N 44°24' E 008°55'0 0.0
2016-Apr-24 02:32N 44°24' E 008°55'0 0.0
2016-Apr-24 01:32N 44°24' E 008°55'0 0.0
2016-Apr-24 00:26N 44°24' E 008°55'0 0.0
2016-Apr-23 23:26N 44°24' E 008°55'0 0.0
2016-Apr-23 22:29N 44°24' E 008°55'0 0.0
2016-Apr-23 21:23N 44°24' E 008°55'0 0.0
2016-Apr-23 20:23N 44°24' E 008°55'0 0.0
2016-Apr-23 19:32N 44°24' E 008°55'0 0.0
2016-Apr-23 18:32N 44°24' E 008°55'0 0.0
2016-Apr-23 17:33N 44°24' E 008°55'2 1.8
2016-Apr-23 16:33N 44°23' E 008°57'0 0.5
2016-Apr-23 15:33N 44°23' E 008°58'7 6.6
2016-Apr-23 14:33N 44°16' E 008°56'1110.8
2016-Apr-23 13:33N 44°07' E 008°48'1110.9
2016-Apr-23 12:33N 43°57' E 008°41'  

Dump ship's entire track history